createdAt,value
2022-08-01T00:00:09.435Z,70.32
2022-08-01T00:02:37.664Z,69.91
2022-08-01T00:05:07.414Z,70.61
2022-08-01T00:07:35.169Z,70.06
2022-08-01T00:10:02.590Z,70.48
2022-08-01T00:12:29.449Z,69.86
2022-08-01T00:14:55.852Z,69.06
2022-08-01T00:17:22.379Z,69.17
2022-08-01T00:19:49.333Z,69.04
2022-08-01T00:22:15.763Z,68.95
2022-08-01T00:24:42.172Z,68.52
2022-08-01T00:27:09.086Z,68.11
2022-08-01T00:30:10.280Z,68.46
2022-08-01T00:32:22.336Z,68.57
2022-08-01T00:34:48.719Z,68.25
2022-08-01T00:37:16.938Z,67.79
2022-08-01T00:39:43.476Z,68.44
2022-08-01T00:42:12.837Z,68.86
2022-08-01T00:44:39.871Z,68.65
2022-08-01T00:47:06.592Z,68.52
2022-08-01T00:49:33.915Z,68.41
2022-08-01T00:52:00.916Z,67.48
2022-08-01T00:54:28.085Z,68.24
2022-08-01T00:56:56.207Z,68.09
2022-08-01T00:59:23.652Z,67.80
2022-08-01T01:01:52.584Z,67.60
2022-08-01T01:04:20.778Z,67.16
2022-08-01T01:07:14.751Z,66.98
2022-08-01T01:09:59.049Z,66.08
2022-08-01T01:12:50.017Z,66.08
2022-08-01T01:15:23.968Z,65.90
2022-08-01T01:18:03.432Z,65.61
2022-08-01T01:20:37.770Z,64.81
2022-08-01T01:23:21.792Z,64.92
2022-08-01T01:25:55.489Z,65.13
2022-08-01T01:28:35.232Z,65.42
2022-08-01T01:31:03.220Z,65.01
2022-08-01T01:33:32.740Z,65.21
2022-08-01T01:36:04.583Z,64.55
2022-08-01T01:38:42.935Z,64.32
2022-08-01T01:41:12.327Z,64.38
2022-08-01T01:43:40.394Z,64.39
2022-08-01T01:46:10.364Z,64.40
2022-08-01T01:48:38.613Z,64.41
2022-08-01T01:51:06.796Z,64.16
2022-08-01T01:53:34.916Z,64.01
2022-08-01T01:56:03.327Z,63.61
2022-08-01T01:58:32.595Z,62.79
2022-08-01T02:01:02.817Z,62.85
2022-08-01T02:03:32.464Z,62.94
2022-08-01T02:06:00.648Z,63.00
2022-08-01T02:08:30.707Z,62.27
2022-08-01T02:11:18.809Z,61.73
2022-08-01T02:13:59.429Z,61.53
2022-08-01T02:16:29.910Z,61.50
2022-08-01T02:18:57.335Z,61.55
2022-08-01T02:22:02.175Z,61.30
2022-08-01T02:24:39.521Z,61.60
2022-08-01T02:27:10.958Z,61.22
2022-08-01T02:29:53.909Z,61.16
2022-08-01T02:32:58.300Z,60.36
2022-08-01T02:35:29.248Z,60.00
2022-08-01T02:37:58.139Z,59.47
2022-08-01T02:40:27.266Z,59.78
2022-08-01T02:42:57.019Z,58.95
2022-08-01T02:45:26.140Z,58.51
2022-08-01T02:47:57.357Z,58.29
2022-08-01T02:50:25.422Z,58.58
2022-08-01T02:52:53.645Z,59.18
2022-08-01T02:55:21.582Z,59.58
2022-08-01T02:57:51.750Z,59.84
2022-08-01T03:00:19.967Z,59.98
2022-08-01T03:02:49.771Z,60.33
2022-08-01T03:05:18.073Z,60.31
2022-08-01T03:07:45.955Z,60.71
2022-08-01T03:10:17.477Z,60.67
2022-08-01T03:12:46.379Z,61.00
2022-08-01T03:15:16.777Z,60.97
2022-08-01T03:17:47.143Z,60.71
2022-08-01T03:20:16.104Z,60.86
2022-08-01T03:22:45.137Z,60.92
2022-08-01T03:25:14.539Z,60.27
2022-08-01T03:27:49.529Z,60.45
2022-08-01T03:30:16.482Z,60.38
2022-08-01T03:32:43.191Z,60.56
2022-08-01T03:35:10.672Z,60.84
2022-08-01T03:38:14.749Z,60.86
2022-08-01T03:40:41.377Z,61.30
2022-08-01T03:43:30.174Z,61.31
2022-08-01T03:46:04.549Z,61.17
2022-08-01T03:48:33.858Z,60.76
2022-08-01T03:51:00.703Z,60.97
2022-08-01T03:53:30.960Z,60.37
2022-08-01T03:56:01.554Z,59.94
2022-08-01T03:58:29.084Z,59.90
2022-08-01T04:00:56.069Z,59.71
2022-08-01T04:03:24.742Z,59.42
2022-08-01T04:05:51.471Z,59.55
2022-08-01T04:08:17.920Z,59.45
2022-08-01T04:10:44.849Z,59.86
2022-08-01T04:13:11.660Z,59.92
2022-08-01T04:15:38.393Z,60.04
2022-08-01T04:18:04.808Z,60.37
2022-08-01T04:20:31.225Z,60.08
2022-08-01T04:22:58.572Z,60.17
2022-08-01T04:25:33.836Z,60.27
2022-08-01T04:28:05.402Z,60.37
2022-08-01T04:30:35.418Z,60.24
2022-08-01T04:33:06.599Z,60.63
2022-08-01T04:36:02.667Z,60.63
2022-08-01T04:38:28.153Z,60.73
2022-08-01T04:40:56.039Z,60.74
2022-08-01T04:43:23.243Z,59.90
2022-08-01T04:45:51.477Z,59.75
2022-08-01T04:48:22.624Z,59.53
2022-08-01T04:50:49.652Z,59.18
2022-08-01T04:53:17.713Z,58.99
2022-08-01T04:55:45.372Z,58.61
2022-08-01T04:58:16.142Z,58.23
2022-08-01T05:00:44.254Z,58.42
2022-08-01T05:03:11.161Z,58.61
2022-08-01T05:05:37.525Z,58.31
2022-08-01T05:08:04.118Z,58.27
2022-08-01T05:10:32.033Z,58.25
2022-08-01T05:12:58.756Z,57.54
2022-08-01T05:15:25.126Z,57.78
2022-08-01T05:17:52.041Z,57.79
2022-08-01T05:20:18.497Z,57.81
2022-08-01T05:22:44.891Z,57.57
2022-08-01T05:25:12.744Z,57.58
2022-08-01T05:27:44.962Z,57.73
2022-08-01T05:30:12.096Z,58.47
2022-08-01T05:32:39.032Z,57.80
2022-08-01T05:35:06.133Z,58.82
2022-08-01T05:37:32.908Z,58.77
2022-08-01T05:39:59.282Z,57.95
2022-08-01T05:42:25.686Z,57.50
2022-08-01T05:44:52.576Z,57.61
2022-08-01T05:47:19.267Z,56.92
2022-08-01T05:49:46.658Z,56.48
2022-08-01T05:52:13.760Z,55.19
2022-08-01T05:54:40.394Z,48.38
2022-08-01T05:57:07.162Z,46.75
2022-08-01T05:59:33.556Z,42.48
2022-08-01T06:02:01.430Z,43.67
2022-08-01T06:04:28.016Z,41.60
2022-08-01T06:06:54.394Z,40.36
2022-08-01T06:09:21.162Z,38.11
2022-08-01T06:11:47.911Z,38.28
2022-08-01T06:14:14.268Z,40.97
2022-08-01T06:16:40.724Z,40.65
2022-08-01T06:19:07.088Z,41.40
2022-08-01T06:21:33.455Z,38.65
2022-08-01T06:23:59.836Z,39.63
2022-08-01T06:26:26.499Z,38.15
2022-08-01T06:28:52.881Z,38.98
2022-08-01T06:31:19.634Z,36.75
2022-08-01T06:33:45.978Z,35.42
2022-08-01T06:36:12.953Z,34.83
2022-08-01T06:38:39.363Z,38.11
2022-08-01T06:41:05.708Z,42.70
2022-08-01T06:43:32.576Z,40.05
2022-08-01T06:45:58.979Z,37.88
2022-08-01T06:48:25.847Z,35.78
2022-08-01T06:51:08.493Z,36.91
2022-08-01T06:53:39.559Z,35.35
2022-08-01T06:56:07.924Z,31.75
2022-08-01T06:58:35.570Z,33.89
2022-08-01T07:01:03.261Z,37.64
2022-08-01T07:03:52.352Z,35.19
2022-08-01T07:06:18.699Z,32.63
2022-08-01T07:08:45.050Z,35.37
2022-08-01T07:11:11.401Z,33.98
2022-08-01T07:13:44.302Z,36.66
2022-08-01T07:16:13.258Z,39.46
2022-08-01T07:18:40.004Z,40.30
2022-08-01T07:21:06.377Z,43.33
2022-08-01T07:23:45.994Z,44.21
2022-08-01T07:26:14.121Z,41.51
2022-08-01T07:28:43.768Z,37.64
2022-08-01T07:31:10.998Z,33.14
2022-08-01T07:33:48.738Z,35.65
2022-08-01T07:36:17.455Z,33.05
2022-08-01T07:38:44.590Z,34.75
2022-08-01T07:41:11.111Z,34.70
2022-08-01T07:43:37.990Z,31.11
2022-08-01T07:46:05.275Z,30.98
2022-08-01T07:48:32.739Z,32.37
2022-08-01T07:50:59.126Z,32.01
2022-08-01T07:53:25.600Z,32.63
2022-08-01T07:55:52.659Z,30.03
2022-08-01T07:58:19.028Z,34.85
2022-08-01T08:00:45.395Z,31.81
2022-08-01T08:03:12.587Z,31.86
2022-08-01T08:05:58.123Z,32.56
2022-08-01T08:08:25.618Z,32.89
2022-08-01T08:10:52.440Z,30.86
2022-08-01T08:13:18.775Z,29.11
2022-08-01T08:15:48.507Z,34.80
2022-08-01T08:18:15.756Z,31.23
2022-08-01T08:20:42.185Z,30.41
2022-08-01T08:23:42.610Z,29.94
2022-08-01T08:26:10.820Z,29.23
2022-08-01T08:28:37.589Z,31.62
2022-08-01T08:31:04.080Z,37.62
2022-08-01T08:33:30.571Z,31.82
2022-08-01T08:35:57.366Z,31.39
2022-08-01T08:38:28.452Z,29.86
2022-08-01T08:40:57.768Z,31.63
2022-08-01T08:43:25.844Z,32.56
2022-08-01T08:45:59.064Z,32.52
2022-08-01T08:48:28.194Z,32.88
2022-08-01T08:50:56.206Z,33.29
2022-08-01T08:53:23.183Z,35.10
2022-08-01T08:55:55.855Z,33.88
2022-08-01T08:58:30.459Z,35.17
2022-08-01T09:00:58.595Z,37.36
2022-08-01T09:03:25.015Z,36.43
2022-08-01T09:05:51.403Z,36.38
2022-08-01T09:08:18.191Z,33.80
2022-08-01T09:10:44.771Z,32.15
2022-08-01T09:13:13.927Z,32.94
2022-08-01T09:15:46.745Z,33.64
2022-08-01T09:18:28.761Z,32.25
2022-08-01T09:21:19.455Z,30.13
2022-08-01T09:23:54.427Z,33.81
2022-08-01T09:26:31.505Z,33.09
2022-08-01T09:28:58.434Z,32.36
2022-08-01T09:31:38.199Z,33.36
2022-08-01T09:34:05.783Z,34.41
2022-08-01T09:36:59.726Z,34.99
2022-08-01T09:39:29.659Z,36.69
2022-08-01T09:41:58.660Z,36.17
2022-08-01T09:44:55.234Z,34.58
2022-08-01T09:47:23.772Z,32.82
2022-08-01T09:49:59.580Z,31.34
2022-08-01T09:52:28.985Z,29.97
2022-08-01T09:55:02.432Z,28.93
2022-08-01T09:57:29.786Z,29.44
2022-08-01T10:00:02.109Z,29.26
2022-08-01T10:02:39.976Z,34.73
2022-08-01T10:05:09.551Z,33.65
2022-08-01T10:07:43.532Z,29.34
2022-08-01T10:10:16.523Z,29.97
2022-08-01T10:12:45.460Z,31.27
2022-08-01T10:15:15.517Z,32.49
2022-08-01T10:17:50.294Z,31.13
2022-08-01T10:20:21.807Z,31.64
2022-08-01T10:23:00.487Z,32.22
2022-08-01T10:25:42.850Z,31.94
2022-08-01T10:28:23.849Z,31.16
2022-08-01T10:30:50.823Z,33.73
2022-08-01T10:33:49.796Z,31.51
2022-08-01T10:36:08.542Z,29.88
2022-08-01T10:38:37.227Z,31.14
2022-08-01T10:41:06.487Z,31.17
2022-08-01T10:43:35.361Z,32.43
2022-08-01T10:46:02.929Z,33.47
2022-08-01T10:48:37.541Z,29.81
2022-08-01T10:51:17.490Z,28.59
2022-08-01T10:53:54.476Z,29.07
2022-08-01T10:56:26.392Z,31.51
2022-08-01T10:59:06.577Z,32.04
2022-08-01T11:01:38.642Z,30.04
2022-08-01T11:04:16.577Z,29.53
2022-08-01T11:06:53.292Z,32.60
2022-08-01T11:09:36.043Z,28.44
2022-08-01T11:12:13.557Z,29.33
2022-08-01T11:15:17.020Z,30.78
2022-08-01T11:17:56.096Z,29.88
2022-08-01T11:20:31.917Z,30.96
2022-08-01T11:23:02.232Z,29.38
2022-08-01T11:26:03.155Z,27.08
2022-08-01T11:28:30.165Z,28.60
2022-08-01T11:31:22.769Z,28.12
2022-08-01T11:33:50.322Z,27.44
2022-08-01T11:36:36.872Z,27.41
2022-08-01T11:39:13.179Z,31.61
2022-08-01T11:41:41.520Z,36.30
2022-08-01T11:44:14.804Z,34.90
2022-08-01T11:46:57.543Z,32.31
2022-08-01T11:49:30.076Z,31.38
2022-08-01T11:52:04.162Z,31.15
2022-08-01T11:54:36.186Z,31.64
2022-08-01T11:57:12.993Z,34.90
2022-08-01T12:00:03.165Z,34.37
2022-08-01T12:02:35.446Z,33.35
2022-08-01T12:05:08.181Z,32.02
2022-08-01T12:07:37.239Z,35.32
2022-08-01T12:10:07.818Z,33.74
2022-08-01T12:12:36.339Z,34.48
2022-08-01T12:15:09.949Z,33.83
2022-08-01T12:17:39.739Z,36.60
2022-08-01T12:20:20.148Z,38.78
2022-08-01T12:22:47.115Z,39.28
2022-08-01T12:25:18.119Z,39.77
2022-08-01T12:27:46.287Z,39.17
2022-08-01T12:30:15.651Z,38.48
2022-08-01T12:32:44.937Z,39.12
2022-08-01T12:35:18.522Z,37.63
2022-08-01T12:37:49.547Z,37.21
2022-08-01T12:40:20.812Z,36.81
2022-08-01T12:42:50.275Z,36.25
2022-08-01T12:45:21.267Z,36.56
2022-08-01T12:47:48.755Z,37.16
2022-08-01T12:50:18.014Z,37.03
2022-08-01T12:52:45.215Z,36.57
2022-08-01T12:55:33.971Z,35.62
2022-08-01T12:58:15.390Z,36.09
2022-08-01T13:00:45.113Z,35.27
2022-08-01T13:03:16.808Z,35.69
2022-08-01T13:05:43.782Z,33.53
2022-08-01T13:08:14.349Z,33.00
2022-08-01T13:10:42.694Z,33.78
2022-08-01T13:13:10.082Z,32.21
2022-08-01T13:15:41.832Z,34.03
2022-08-01T13:18:28.167Z,37.42
2022-08-01T13:21:13.158Z,39.66
2022-08-01T13:24:02.853Z,35.04
2022-08-01T13:26:47.778Z,30.50
2022-08-01T13:29:16.436Z,32.21
2022-08-01T13:31:43.319Z,32.08
2022-08-01T13:34:10.618Z,31.52
2022-08-01T13:36:38.655Z,29.56
2022-08-01T13:39:24.711Z,33.88
2022-08-01T13:41:51.359Z,35.24
2022-08-01T13:44:17.779Z,33.57
2022-08-01T13:46:49.264Z,32.99
2022-08-01T13:49:16.746Z,33.70
2022-08-01T13:51:43.641Z,33.21
2022-08-01T13:54:10.190Z,33.68
2022-08-01T13:56:37.728Z,33.51
2022-08-01T13:59:04.134Z,32.51
2022-08-01T14:01:34.254Z,34.09
2022-08-01T14:04:01.940Z,33.77
2022-08-01T14:06:28.396Z,31.36
2022-08-01T14:08:55.243Z,30.73
2022-08-01T14:11:22.089Z,31.64
2022-08-01T14:13:48.890Z,31.60
2022-08-01T14:16:17.079Z,32.57
2022-08-01T14:18:44.419Z,33.92
2022-08-01T14:21:11.316Z,33.67
2022-08-01T14:23:37.757Z,35.08
2022-08-01T14:26:11.443Z,35.15
2022-08-01T14:28:39.927Z,32.32
2022-08-01T14:31:10.080Z,30.91
2022-08-01T14:33:37.266Z,29.93
2022-08-01T14:36:20.717Z,29.14
2022-08-01T14:38:51.179Z,27.72
2022-08-01T14:41:17.595Z,28.87
2022-08-01T14:43:44.153Z,27.34
2022-08-01T14:46:11.024Z,28.61
2022-08-01T14:48:38.208Z,28.09
2022-08-01T14:51:05.113Z,28.85
2022-08-01T14:53:34.267Z,30.94
2022-08-01T14:56:02.308Z,30.44
2022-08-01T14:58:28.661Z,30.20
2022-08-01T15:00:58.654Z,30.40
2022-08-01T15:03:26.648Z,31.11
2022-08-01T15:05:53.134Z,32.07
2022-08-01T15:08:19.491Z,35.20
2022-08-01T15:10:46.378Z,34.44
2022-08-01T15:13:12.985Z,34.14
2022-08-01T15:15:39.399Z,34.96
2022-08-01T15:18:06.305Z,34.62
2022-08-01T15:20:33.753Z,38.01
2022-08-01T15:23:00.203Z,36.62
2022-08-01T15:25:26.886Z,36.60
2022-08-01T15:28:07.133Z,36.99
2022-08-01T15:30:34.468Z,35.63
2022-08-01T15:33:00.856Z,36.39
2022-08-01T15:35:27.240Z,35.37
2022-08-01T15:37:54.229Z,35.67
2022-08-01T15:40:20.581Z,35.72
2022-08-01T15:42:47.055Z,35.53
2022-08-01T15:45:46.271Z,35.70
2022-08-01T15:48:06.353Z,34.60
2022-08-01T15:50:33.376Z,34.86
2022-08-01T15:53:00.159Z,35.13
2022-08-01T15:55:26.610Z,35.60
2022-08-01T15:57:53.615Z,35.22
2022-08-01T16:00:19.996Z,37.30
2022-08-01T16:02:47.039Z,37.16
2022-08-01T16:05:14.051Z,37.05
2022-08-01T16:07:59.921Z,37.28
2022-08-01T16:10:29.131Z,38.41
2022-08-01T16:12:55.660Z,38.12
2022-08-01T16:15:22.579Z,39.73
2022-08-01T16:18:02.033Z,38.89
2022-08-01T16:20:28.800Z,39.19
2022-08-01T16:22:55.149Z,39.68
2022-08-01T16:25:21.569Z,39.02
2022-08-01T16:27:48.412Z,40.04
2022-08-01T16:30:14.793Z,40.07
2022-08-01T16:32:47.134Z,40.65
2022-08-01T16:35:18.634Z,40.35
2022-08-01T16:37:45.494Z,41.19
2022-08-01T16:40:12.262Z,41.07
2022-08-01T16:42:38.651Z,41.51
2022-08-01T16:45:08.747Z,41.17
2022-08-01T16:47:40.088Z,42.44
2022-08-01T16:50:07.296Z,50.24
2022-08-01T16:52:33.646Z,53.13
2022-08-01T16:55:10.326Z,52.89
2022-08-01T16:57:38.230Z,53.34
2022-08-01T17:00:08.755Z,52.60
2022-08-01T17:02:38.530Z,55.36
2022-08-01T17:05:07.743Z,63.62
2022-08-01T17:07:36.319Z,66.52
2022-08-01T17:10:03.616Z,69.35
2022-08-01T17:12:30.875Z,70.26
2022-08-01T17:14:57.272Z,72.72
2022-08-01T17:17:23.846Z,73.06
2022-08-01T17:19:52.602Z,74.01
2022-08-01T17:22:19.505Z,72.95
2022-08-01T17:24:46.376Z,72.00
2022-08-01T17:27:13.774Z,72.34
2022-08-01T17:29:43.513Z,73.16
2022-08-01T17:32:11.298Z,73.84
2022-08-01T17:34:39.832Z,72.49
2022-08-01T17:37:06.610Z,76.54
2022-08-01T17:39:39.258Z,74.29
2022-08-01T17:42:08.222Z,74.17
2022-08-01T17:44:35.383Z,76.81
2022-08-01T17:47:02.082Z,76.17
2022-08-01T17:49:53.225Z,75.91
2022-08-01T17:52:15.215Z,76.96
2022-08-01T17:54:41.754Z,77.84
2022-08-01T17:57:08.842Z,78.55
2022-08-01T17:59:36.170Z,78.61
2022-08-01T18:02:02.764Z,79.16
2022-08-01T18:04:33.746Z,78.95
2022-08-01T18:07:00.846Z,77.86
2022-08-01T18:09:32.964Z,79.59
2022-08-01T18:12:02.113Z,78.09
2022-08-01T18:14:32.621Z,80.30
2022-08-01T18:17:11.327Z,80.29
2022-08-01T18:19:38.641Z,80.78
2022-08-01T18:22:05.964Z,81.27
2022-08-01T18:24:52.720Z,81.21
2022-08-01T18:27:19.135Z,83.19
2022-08-01T18:29:48.323Z,84.62
2022-08-01T18:32:15.102Z,84.11
2022-08-01T18:34:42.060Z,84.10
2022-08-01T18:37:10.155Z,82.20
2022-08-01T18:39:39.409Z,82.27
2022-08-01T18:42:06.290Z,81.47
2022-08-01T18:44:33.586Z,81.07
2022-08-01T18:47:00.029Z,81.59
2022-08-01T18:49:26.448Z,81.93
2022-08-01T18:51:54.668Z,81.67
2022-08-01T18:54:22.811Z,83.03
2022-08-01T18:56:49.712Z,83.25
2022-08-01T18:59:16.540Z,82.72
2022-08-01T19:01:43.446Z,82.99
2022-08-01T19:04:11.298Z,83.59
2022-08-01T19:06:38.679Z,82.89
2022-08-01T19:09:07.201Z,83.00
2022-08-01T19:11:34.885Z,83.90
2022-08-01T19:14:02.196Z,82.70
2022-08-01T19:16:29.000Z,82.90
2022-08-01T19:18:55.955Z,82.87
2022-08-01T19:21:23.091Z,83.75
2022-08-01T19:24:08.530Z,83.67
2022-08-01T19:26:35.979Z,83.36
2022-08-01T19:29:10.026Z,84.45
2022-08-01T19:31:39.551Z,85.19
2022-08-01T19:34:07.425Z,86.42
2022-08-01T19:36:35.034Z,86.58
2022-08-01T19:39:01.840Z,86.50
2022-08-01T19:41:29.783Z,85.27
2022-08-01T19:43:58.651Z,86.52
2022-08-01T19:46:25.400Z,86.14
2022-08-01T19:48:54.066Z,85.23
2022-08-01T19:51:22.670Z,84.77
2022-08-01T19:54:04.131Z,85.08
2022-08-01T19:56:37.583Z,85.51
2022-08-01T19:59:04.851Z,85.29
2022-08-01T20:01:32.146Z,86.19
2022-08-01T20:04:03.857Z,86.69
2022-08-01T20:06:31.108Z,86.70
2022-08-01T20:08:58.410Z,86.57
2022-08-01T20:11:26.162Z,86.10
2022-08-01T20:13:52.953Z,85.35
2022-08-01T20:16:19.352Z,85.87
2022-08-01T20:18:46.215Z,85.43
2022-08-01T20:21:13.446Z,85.77
2022-08-01T20:23:41.331Z,84.46
2022-08-01T20:26:09.609Z,85.22
2022-08-01T20:28:41.656Z,85.06
2022-08-01T20:31:10.174Z,85.67
2022-08-01T20:33:43.027Z,86.63
2022-08-01T20:36:12.362Z,87.35
2022-08-01T20:38:56.645Z,88.04
2022-08-01T20:41:24.754Z,88.41
2022-08-01T20:43:57.572Z,88.96
2022-08-01T20:46:27.914Z,89.10
2022-08-01T20:48:55.934Z,90.07
2022-08-01T20:51:27.167Z,89.58
2022-08-01T20:53:54.588Z,89.88
2022-08-01T20:56:57.071Z,89.08
2022-08-01T20:59:39.601Z,88.59
2022-08-01T21:02:28.817Z,88.49
2022-08-01T21:04:57.875Z,88.26
2022-08-01T21:07:31.509Z,88.69
2022-08-01T21:10:08.985Z,89.31
2022-08-01T21:12:45.183Z,89.40
2022-08-01T21:15:22.875Z,89.32
2022-08-01T21:18:03.262Z,89.62
2022-08-01T21:20:32.688Z,89.70
2022-08-01T21:23:10.046Z,88.86
2022-08-01T21:25:36.854Z,88.46
2022-08-01T21:28:04.588Z,88.64
2022-08-01T21:30:35.573Z,88.33
2022-08-01T21:33:04.434Z,88.43
2022-08-01T21:35:32.520Z,88.22
2022-08-01T21:38:01.946Z,87.98
2022-08-01T21:40:31.971Z,88.04
2022-08-01T21:43:01.035Z,88.37
2022-08-01T21:45:28.872Z,87.98
2022-08-01T21:47:57.032Z,88.12
2022-08-01T21:50:24.203Z,87.62
2022-08-01T21:53:02.719Z,88.59
2022-08-01T21:56:15.057Z,88.50
2022-08-01T21:58:57.071Z,88.61
2022-08-01T22:01:51.575Z,88.20
2022-08-01T22:04:26.819Z,88.73
2022-08-01T22:06:54.323Z,89.11
2022-08-01T22:09:21.947Z,88.42
2022-08-01T22:12:01.309Z,88.25
2022-08-01T22:14:29.899Z,87.93
2022-08-01T22:16:59.115Z,87.66
2022-08-01T22:19:32.730Z,88.00
2022-08-01T22:22:44.703Z,87.68
2022-08-01T22:25:00.016Z,87.34
2022-08-01T22:28:08.096Z,87.50
2022-08-01T22:30:15.610Z,87.29
2022-08-01T22:32:43.351Z,87.41
2022-08-01T22:35:14.343Z,87.19
2022-08-01T22:37:57.496Z,86.73
2022-08-01T22:40:24.138Z,87.32
2022-08-01T22:42:59.942Z,86.64
2022-08-01T22:45:44.784Z,87.02
2022-08-01T22:48:11.514Z,86.54
2022-08-01T22:50:56.280Z,85.94
2022-08-01T22:53:53.587Z,86.37
2022-08-01T22:56:21.452Z,87.18
2022-08-01T22:58:48.700Z,88.11
2022-08-01T23:01:21.885Z,88.54
2022-08-01T23:03:50.599Z,87.73
2022-08-01T23:06:24.236Z,88.75
2022-08-01T23:08:50.936Z,88.10
2022-08-01T23:11:21.129Z,88.04
2022-08-01T23:13:50.892Z,87.52
2022-08-01T23:16:17.835Z,88.16
2022-08-01T23:18:46.236Z,86.78
2022-08-01T23:21:13.696Z,87.40
2022-08-01T23:23:40.148Z,87.01
2022-08-01T23:26:07.067Z,86.73
2022-08-01T23:28:34.202Z,87.21
2022-08-01T23:31:02.409Z,87.49
2022-08-01T23:33:28.845Z,87.67
2022-08-01T23:35:55.903Z,87.29
2022-08-01T23:38:22.356Z,87.41
2022-08-01T23:40:50.001Z,86.77
2022-08-01T23:43:17.769Z,86.89
2022-08-01T23:46:04.398Z,87.19
2022-08-01T23:48:32.847Z,87.50
2022-08-01T23:50:59.795Z,87.06
2022-08-01T23:53:30.626Z,87.21
2022-08-01T23:55:58.628Z,87.25
2022-08-01T23:58:25.416Z,87.68
